sensor_id;sensor_type;location;lat;lon;timestamp;P1;durP1;ratioP1;P2;durP2;ratioP2
28772;SDS011;15925;51.222;5.678;2023-05-07T00:01:56;5.57;;;2.88;;
28772;SDS011;15925;51.222;5.678;2023-05-07T00:04:22;9.20;;;3.33;;
28772;SDS011;15925;51.222;5.678;2023-05-07T00:06:48;6.50;;;2.80;;
28772;SDS011;15925;51.222;5.678;2023-05-07T00:09:14;9.30;;;2.90;;
28772;SDS011;15925;51.222;5.678;2023-05-07T00:11:39;5.53;;;3.30;;
28772;SDS011;15925;51.222;5.678;2023-05-07T00:14:05;5.50;;;2.60;;
28772;SDS011;15925;51.222;5.678;2023-05-07T00:16:31;5.38;;;3.25;;
28772;SDS011;15925;51.222;5.678;2023-05-07T00:18:57;6.17;;;3.40;;
28772;SDS011;15925;51.222;5.678;2023-05-07T00:21:22;5.07;;;3.00;;
28772;SDS011;15925;51.222;5.678;2023-05-07T00:23:52;4.55;;;2.45;;
28772;SDS011;15925;51.222;5.678;2023-05-07T00:28:46;2.85;;;2.45;;
28772;SDS011;15925;51.222;5.678;2023-05-07T00:31:12;7.20;;;3.73;;
28772;SDS011;15925;51.222;5.678;2023-05-07T00:33:38;6.80;;;2.78;;
28772;SDS011;15925;51.222;5.678;2023-05-07T00:36:04;4.80;;;2.80;;
28772;SDS011;15925;51.222;5.678;2023-05-07T00:38:30;7.28;;;2.97;;
28772;SDS011;15925;51.222;5.678;2023-05-07T00:40:56;8.07;;;3.15;;
28772;SDS011;15925;51.222;5.678;2023-05-07T00:43:21;5.23;;;2.77;;
28772;SDS011;15925;51.222;5.678;2023-05-07T00:45:47;5.90;;;3.70;;
28772;SDS011;15925;51.222;5.678;2023-05-07T00:48:13;4.53;;;2.47;;
28772;SDS011;15925;51.222;5.678;2023-05-07T00:50:39;4.30;;;2.65;;
28772;SDS011;15925;51.222;5.678;2023-05-07T00:53:05;3.43;;;2.40;;
28772;SDS011;15925;51.222;5.678;2023-05-07T00:55:32;5.20;;;3.22;;
28772;SDS011;15925;51.222;5.678;2023-05-07T00:57:58;4.80;;;3.38;;
28772;SDS011;15925;51.222;5.678;2023-05-07T01:00:24;11.02;;;2.38;;
28772;SDS011;15925;51.222;5.678;2023-05-07T01:02:50;4.05;;;2.35;;
28772;SDS011;15925;51.222;5.678;2023-05-07T01:05:16;4.27;;;2.83;;
28772;SDS011;15925;51.222;5.678;2023-05-07T01:07:43;6.57;;;3.15;;
28772;SDS011;15925;51.222;5.678;2023-05-07T01:12:36;5.97;;;3.22;;
28772;SDS011;15925;51.222;5.678;2023-05-07T01:15:04;9.98;;;3.75;;
28772;SDS011;15925;51.222;5.678;2023-05-07T01:17:38;6.60;;;3.30;;
28772;SDS011;15925;51.222;5.678;2023-05-07T01:20:10;4.65;;;2.88;;
28772;SDS011;15925;51.222;5.678;2023-05-07T01:22:37;5.68;;;3.53;;
28772;SDS011;15925;51.222;5.678;2023-05-07T01:25:04;12.00;;;4.00;;
28772;SDS011;15925;51.222;5.678;2023-05-07T01:27:31;9.05;;;3.88;;
28772;SDS011;15925;51.222;5.678;2023-05-07T01:29:59;7.95;;;3.50;;
28772;SDS011;15925;51.222;5.678;2023-05-07T01:32:38;7.07;;;4.22;;
28772;SDS011;15925;51.222;5.678;2023-05-07T01:35:10;8.13;;;4.28;;
28772;SDS011;15925;51.222;5.678;2023-05-07T01:37:38;5.88;;;4.25;;
28772;SDS011;15925;51.222;5.678;2023-05-07T01:40:05;12.48;;;4.07;;
28772;SDS011;15925;51.222;5.678;2023-05-07T01:42:32;13.05;;;4.18;;
28772;SDS011;15925;51.222;5.678;2023-05-07T01:47:25;5.38;;;3.70;;
28772;SDS011;15925;51.222;5.678;2023-05-07T01:52:17;6.22;;;3.83;;
28772;SDS011;15925;51.222;5.678;2023-05-07T01:54:43;7.60;;;4.25;;
28772;SDS011;15925;51.222;5.678;2023-05-07T01:57:09;9.13;;;4.25;;
28772;SDS011;15925;51.222;5.678;2023-05-07T01:59:35;9.48;;;4.63;;
28772;SDS011;15925;51.222;5.678;2023-05-07T02:02:02;5.43;;;3.53;;
28772;SDS011;15925;51.222;5.678;2023-05-07T02:04:28;5.72;;;3.78;;
28772;SDS011;15925;51.222;5.678;2023-05-07T02:06:54;10.85;;;4.88;;
28772;SDS011;15925;51.222;5.678;2023-05-07T02:11:48;7.43;;;4.20;;
28772;SDS011;15925;51.222;5.678;2023-05-07T02:14:15;8.55;;;4.60;;
28772;SDS011;15925;51.222;5.678;2023-05-07T02:16:41;10.67;;;4.93;;
28772;SDS011;15925;51.222;5.678;2023-05-07T02:19:08;12.57;;;5.15;;
28772;SDS011;15925;51.222;5.678;2023-05-07T02:21:34;6.90;;;4.45;;
28772;SDS011;15925;51.222;5.678;2023-05-07T02:24:00;9.47;;;5.00;;
28772;SDS011;15925;51.222;5.678;2023-05-07T02:26:26;10.65;;;4.32;;
28772;SDS011;15925;51.222;5.678;2023-05-07T02:28:52;9.80;;;4.97;;
28772;SDS011;15925;51.222;5.678;2023-05-07T02:31:19;7.43;;;3.78;;
28772;SDS011;15925;51.222;5.678;2023-05-07T02:33:45;8.50;;;4.43;;
28772;SDS011;15925;51.222;5.678;2023-05-07T02:36:12;10.32;;;4.43;;
28772;SDS011;15925;51.222;5.678;2023-05-07T02:38:44;10.05;;;3.92;;
28772;SDS011;15925;51.222;5.678;2023-05-07T02:41:10;9.23;;;5.07;;
28772;SDS011;15925;51.222;5.678;2023-05-07T02:43:36;6.97;;;5.00;;
28772;SDS011;15925;51.222;5.678;2023-05-07T02:46:05;13.67;;;5.10;;
28772;SDS011;15925;51.222;5.678;2023-05-07T02:48:35;9.90;;;5.55;;
28772;SDS011;15925;51.222;5.678;2023-05-07T02:51:01;15.25;;;5.35;;
28772;SDS011;15925;51.222;5.678;2023-05-07T02:55:58;11.88;;;5.40;;
28772;SDS011;15925;51.222;5.678;2023-05-07T02:58:25;8.32;;;5.13;;
28772;SDS011;15925;51.222;5.678;2023-05-07T03:00:52;12.15;;;5.15;;
28772;SDS011;15925;51.222;5.678;2023-05-07T03:03:28;7.80;;;4.95;;
28772;SDS011;15925;51.222;5.678;2023-05-07T03:05:54;8.48;;;4.82;;
28772;SDS011;15925;51.222;5.678;2023-05-07T03:08:19;12.77;;;5.80;;
28772;SDS011;15925;51.222;5.678;2023-05-07T03:10:45;8.77;;;4.53;;
28772;SDS011;15925;51.222;5.678;2023-05-07T03:13:11;9.07;;;5.50;;
28772;SDS011;15925;51.222;5.678;2023-05-07T03:15:37;15.98;;;5.45;;
28772;SDS011;15925;51.222;5.678;2023-05-07T03:18:03;11.17;;;5.97;;
28772;SDS011;15925;51.222;5.678;2023-05-07T03:20:29;14.93;;;5.53;;
28772;SDS011;15925;51.222;5.678;2023-05-07T03:25:21;7.10;;;4.30;;
28772;SDS011;15925;51.222;5.678;2023-05-07T03:27:47;8.45;;;5.03;;
28772;SDS011;15925;51.222;5.678;2023-05-07T03:30:14;10.95;;;4.45;;
28772;SDS011;15925;51.222;5.678;2023-05-07T03:32:40;14.87;;;5.93;;
28772;SDS011;15925;51.222;5.678;2023-05-07T03:35:09;12.38;;;7.03;;
28772;SDS011;15925;51.222;5.678;2023-05-07T03:37:35;8.85;;;6.22;;
28772;SDS011;15925;51.222;5.678;2023-05-07T03:40:01;10.63;;;5.97;;
28772;SDS011;15925;51.222;5.678;2023-05-07T03:42:31;11.57;;;5.97;;
28772;SDS011;15925;51.222;5.678;2023-05-07T03:44:57;9.77;;;5.00;;
28772;SDS011;15925;51.222;5.678;2023-05-07T03:47:23;9.48;;;5.82;;
28772;SDS011;15925;51.222;5.678;2023-05-07T03:49:49;9.18;;;4.80;;
28772;SDS011;15925;51.222;5.678;2023-05-07T03:52:18;8.65;;;5.75;;
28772;SDS011;15925;51.222;5.678;2023-05-07T03:54:49;8.15;;;5.15;;
28772;SDS011;15925;51.222;5.678;2023-05-07T03:57:15;10.50;;;6.05;;
28772;SDS011;15925;51.222;5.678;2023-05-07T03:59:41;9.65;;;4.78;;
28772;SDS011;15925;51.222;5.678;2023-05-07T04:02:08;8.45;;;5.47;;
28772;SDS011;15925;51.222;5.678;2023-05-07T04:04:34;8.55;;;4.38;;
28772;SDS011;15925;51.222;5.678;2023-05-07T04:07:00;9.40;;;5.25;;
28772;SDS011;15925;51.222;5.678;2023-05-07T04:09:26;4.45;;;3.30;;
28772;SDS011;15925;51.222;5.678;2023-05-07T04:11:54;6.68;;;4.10;;
28772;SDS011;15925;51.222;5.678;2023-05-07T04:14:21;7.57;;;5.00;;
28772;SDS011;15925;51.222;5.678;2023-05-07T04:19:13;11.20;;;5.68;;
28772;SDS011;15925;51.222;5.678;2023-05-07T04:21:39;16.35;;;6.93;;
28772;SDS011;15925;51.222;5.678;2023-05-07T04:24:05;11.93;;;7.10;;
28772;SDS011;15925;51.222;5.678;2023-05-07T04:26:31;16.15;;;5.78;;
28772;SDS011;15925;51.222;5.678;2023-05-07T04:28:58;11.57;;;6.45;;
28772;SDS011;15925;51.222;5.678;2023-05-07T04:31:29;14.48;;;6.28;;
28772;SDS011;15925;51.222;5.678;2023-05-07T04:33:55;9.93;;;6.25;;
28772;SDS011;15925;51.222;5.678;2023-05-07T04:36:21;13.83;;;6.70;;
28772;SDS011;15925;51.222;5.678;2023-05-07T04:38:56;14.23;;;5.72;;
28772;SDS011;15925;51.222;5.678;2023-05-07T04:41:22;11.87;;;6.07;;
28772;SDS011;15925;51.222;5.678;2023-05-07T04:43:48;11.32;;;6.40;;
28772;SDS011;15925;51.222;5.678;2023-05-07T04:46:16;15.98;;;6.57;;
28772;SDS011;15925;51.222;5.678;2023-05-07T04:48:43;13.70;;;7.60;;
28772;SDS011;15925;51.222;5.678;2023-05-07T04:51:10;19.45;;;7.80;;
28772;SDS011;15925;51.222;5.678;2023-05-07T04:53:37;15.75;;;7.50;;
28772;SDS011;15925;51.222;5.678;2023-05-07T04:58:35;13.07;;;6.88;;
28772;SDS011;15925;51.222;5.678;2023-05-07T05:01:02;12.68;;;7.15;;
28772;SDS011;15925;51.222;5.678;2023-05-07T05:05:56;21.88;;;7.47;;
28772;SDS011;15925;51.222;5.678;2023-05-07T05:08:25;15.88;;;9.02;;
28772;SDS011;15925;51.222;5.678;2023-05-07T05:10:51;16.05;;;9.13;;
28772;SDS011;15925;51.222;5.678;2023-05-07T05:13:17;16.90;;;8.90;;
28772;SDS011;15925;51.222;5.678;2023-05-07T05:15:44;15.35;;;8.38;;
28772;SDS011;15925;51.222;5.678;2023-05-07T05:18:10;18.02;;;8.63;;
28772;SDS011;15925;51.222;5.678;2023-05-07T05:20:38;29.42;;;9.40;;
28772;SDS011;15925;51.222;5.678;2023-05-07T05:23:04;16.48;;;9.38;;
28772;SDS011;15925;51.222;5.678;2023-05-07T05:25:31;22.83;;;8.57;;
28772;SDS011;15925;51.222;5.678;2023-05-07T05:30:24;17.85;;;9.90;;
28772;SDS011;15925;51.222;5.678;2023-05-07T05:32:50;14.27;;;7.90;;
28772;SDS011;15925;51.222;5.678;2023-05-07T05:35:16;16.30;;;8.70;;
28772;SDS011;15925;51.222;5.678;2023-05-07T05:37:43;20.63;;;8.93;;
28772;SDS011;15925;51.222;5.678;2023-05-07T05:40:09;18.15;;;8.20;;
28772;SDS011;15925;51.222;5.678;2023-05-07T05:42:35;19.85;;;8.48;;
28772;SDS011;15925;51.222;5.678;2023-05-07T05:45:01;22.30;;;10.07;;
28772;SDS011;15925;51.222;5.678;2023-05-07T05:47:32;17.35;;;8.73;;
28772;SDS011;15925;51.222;5.678;2023-05-07T05:49:59;18.50;;;8.27;;
28772;SDS011;15925;51.222;5.678;2023-05-07T05:52:25;15.67;;;8.87;;
28772;SDS011;15925;51.222;5.678;2023-05-07T05:54:51;20.52;;;9.05;;
28772;SDS011;15925;51.222;5.678;2023-05-07T05:57:18;26.10;;;8.68;;
28772;SDS011;15925;51.222;5.678;2023-05-07T05:59:44;25.05;;;7.25;;
28772;SDS011;15925;51.222;5.678;2023-05-07T06:02:12;18.88;;;7.95;;
28772;SDS011;15925;51.222;5.678;2023-05-07T06:04:38;17.58;;;9.27;;
28772;SDS011;15925;51.222;5.678;2023-05-07T06:07:04;13.50;;;7.82;;
28772;SDS011;15925;51.222;5.678;2023-05-07T06:09:30;16.52;;;8.02;;
28772;SDS011;15925;51.222;5.678;2023-05-07T06:11:56;13.93;;;7.20;;
28772;SDS011;15925;51.222;5.678;2023-05-07T06:14:22;14.68;;;8.60;;
28772;SDS011;15925;51.222;5.678;2023-05-07T06:16:48;12.40;;;7.25;;
28772;SDS011;15925;51.222;5.678;2023-05-07T06:19:14;19.13;;;7.90;;
28772;SDS011;15925;51.222;5.678;2023-05-07T06:21:40;17.27;;;7.95;;
28772;SDS011;15925;51.222;5.678;2023-05-07T06:24:07;14.45;;;7.53;;
28772;SDS011;15925;51.222;5.678;2023-05-07T06:26:33;13.55;;;7.07;;
28772;SDS011;15925;51.222;5.678;2023-05-07T06:28:59;21.27;;;7.17;;
28772;SDS011;15925;51.222;5.678;2023-05-07T06:31:28;13.23;;;7.23;;
28772;SDS011;15925;51.222;5.678;2023-05-07T06:34:01;14.00;;;6.20;;
28772;SDS011;15925;51.222;5.678;2023-05-07T06:36:32;12.10;;;6.22;;
28772;SDS011;15925;51.222;5.678;2023-05-07T06:39:02;12.82;;;6.75;;
28772;SDS011;15925;51.222;5.678;2023-05-07T06:41:28;17.67;;;7.93;;
28772;SDS011;15925;51.222;5.678;2023-05-07T06:43:58;12.23;;;6.97;;
28772;SDS011;15925;51.222;5.678;2023-05-07T06:46:31;12.65;;;6.50;;
28772;SDS011;15925;51.222;5.678;2023-05-07T06:48:57;15.70;;;7.10;;
28772;SDS011;15925;51.222;5.678;2023-05-07T06:51:24;12.40;;;6.40;;
28772;SDS011;15925;51.222;5.678;2023-05-07T06:53:50;22.52;;;7.78;;
28772;SDS011;15925;51.222;5.678;2023-05-07T06:56:16;13.02;;;6.22;;
28772;SDS011;15925;51.222;5.678;2023-05-07T06:58:42;12.73;;;6.43;;
28772;SDS011;15925;51.222;5.678;2023-05-07T07:01:09;14.95;;;5.85;;
28772;SDS011;15925;51.222;5.678;2023-05-07T07:03:36;12.38;;;5.78;;
28772;SDS011;15925;51.222;5.678;2023-05-07T07:06:02;12.10;;;6.00;;
28772;SDS011;15925;51.222;5.678;2023-05-07T07:10:54;9.73;;;5.57;;
28772;SDS011;15925;51.222;5.678;2023-05-07T07:13:21;14.70;;;5.25;;
28772;SDS011;15925;51.222;5.678;2023-05-07T07:15:46;14.80;;;6.30;;
28772;SDS011;15925;51.222;5.678;2023-05-07T07:18:12;12.00;;;6.78;;
28772;SDS011;15925;51.222;5.678;2023-05-07T07:20:38;7.82;;;5.38;;
28772;SDS011;15925;51.222;5.678;2023-05-07T07:23:06;12.52;;;6.10;;
28772;SDS011;15925;51.222;5.678;2023-05-07T07:25:32;8.07;;;5.07;;
28772;SDS011;15925;51.222;5.678;2023-05-07T07:27:59;16.73;;;5.15;;
28772;SDS011;15925;51.222;5.678;2023-05-07T07:30:26;19.10;;;7.00;;
28772;SDS011;15925;51.222;5.678;2023-05-07T07:32:52;9.13;;;5.13;;
28772;SDS011;15925;51.222;5.678;2023-05-07T07:35:19;9.95;;;6.03;;
28772;SDS011;15925;51.222;5.678;2023-05-07T07:37:46;6.95;;;4.07;;
28772;SDS011;15925;51.222;5.678;2023-05-07T07:40:15;12.48;;;4.97;;
28772;SDS011;15925;51.222;5.678;2023-05-07T07:45:07;10.13;;;4.63;;
28772;SDS011;15925;51.222;5.678;2023-05-07T07:47:38;13.32;;;5.65;;
28772;SDS011;15925;51.222;5.678;2023-05-07T07:50:07;10.43;;;5.20;;
28772;SDS011;15925;51.222;5.678;2023-05-07T07:55:00;14.02;;;5.07;;
28772;SDS011;15925;51.222;5.678;2023-05-07T07:57:27;8.27;;;4.43;;
28772;SDS011;15925;51.222;5.678;2023-05-07T07:59:53;6.05;;;3.67;;
28772;SDS011;15925;51.222;5.678;2023-05-07T08:02:19;8.60;;;4.13;;
28772;SDS011;15925;51.222;5.678;2023-05-07T08:04:46;8.52;;;4.88;;
28772;SDS011;15925;51.222;5.678;2023-05-07T08:09:41;7.65;;;4.28;;
28772;SDS011;15925;51.222;5.678;2023-05-07T08:12:08;6.50;;;4.00;;
28772;SDS011;15925;51.222;5.678;2023-05-07T08:14:35;8.55;;;4.30;;
28772;SDS011;15925;51.222;5.678;2023-05-07T08:17:03;8.68;;;4.50;;
28772;SDS011;15925;51.222;5.678;2023-05-07T08:19:29;5.75;;;4.32;;
28772;SDS011;15925;51.222;5.678;2023-05-07T08:21:55;9.38;;;3.92;;
28772;SDS011;15925;51.222;5.678;2023-05-07T08:24:23;13.50;;;5.22;;
28772;SDS011;15925;51.222;5.678;2023-05-07T08:26:49;11.02;;;5.35;;
28772;SDS011;15925;51.222;5.678;2023-05-07T08:29:15;9.32;;;4.95;;
28772;SDS011;15925;51.222;5.678;2023-05-07T08:31:41;9.55;;;4.00;;
28772;SDS011;15925;51.222;5.678;2023-05-07T08:34:07;9.75;;;5.32;;
28772;SDS011;15925;51.222;5.678;2023-05-07T08:36:36;13.73;;;4.53;;
28772;SDS011;15925;51.222;5.678;2023-05-07T08:39:02;9.77;;;4.50;;
28772;SDS011;15925;51.222;5.678;2023-05-07T08:41:29;8.80;;;4.70;;
28772;SDS011;15925;51.222;5.678;2023-05-07T08:43:55;11.00;;;4.80;;
28772;SDS011;15925;51.222;5.678;2023-05-07T08:46:25;7.85;;;4.30;;
28772;SDS011;15925;51.222;5.678;2023-05-07T08:48:55;7.63;;;4.28;;
28772;SDS011;15925;51.222;5.678;2023-05-07T08:51:21;10.63;;;3.53;;
28772;SDS011;15925;51.222;5.678;2023-05-07T08:53:48;6.55;;;4.15;;
28772;SDS011;15925;51.222;5.678;2023-05-07T08:56:20;7.95;;;4.35;;
28772;SDS011;15925;51.222;5.678;2023-05-07T08:58:47;9.55;;;3.72;;
28772;SDS011;15925;51.222;5.678;2023-05-07T09:01:14;11.75;;;4.25;;
28772;SDS011;15925;51.222;5.678;2023-05-07T09:03:44;7.55;;;3.95;;
28772;SDS011;15925;51.222;5.678;2023-05-07T09:06:11;4.93;;;3.20;;
28772;SDS011;15925;51.222;5.678;2023-05-07T09:08:37;7.18;;;3.85;;
28772;SDS011;15925;51.222;5.678;2023-05-07T09:11:04;6.93;;;3.95;;
28772;SDS011;15925;51.222;5.678;2023-05-07T09:13:30;10.13;;;4.20;;
28772;SDS011;15925;51.222;5.678;2023-05-07T09:15:59;5.28;;;3.35;;
28772;SDS011;15925;51.222;5.678;2023-05-07T09:18:40;14.10;;;4.45;;
28772;SDS011;15925;51.222;5.678;2023-05-07T09:21:11;6.68;;;2.83;;
28772;SDS011;15925;51.222;5.678;2023-05-07T09:23:41;13.88;;;3.35;;
28772;SDS011;15925;51.222;5.678;2023-05-07T09:26:07;4.70;;;3.25;;
28772;SDS011;15925;51.222;5.678;2023-05-07T09:28:40;6.55;;;3.13;;
28772;SDS011;15925;51.222;5.678;2023-05-07T09:31:08;6.30;;;2.92;;
28772;SDS011;15925;51.222;5.678;2023-05-07T09:33:36;7.18;;;3.15;;
28772;SDS011;15925;51.222;5.678;2023-05-07T09:36:03;6.43;;;2.88;;
28772;SDS011;15925;51.222;5.678;2023-05-07T09:38:32;10.07;;;3.30;;
28772;SDS011;15925;51.222;5.678;2023-05-07T09:41:02;4.03;;;2.50;;
28772;SDS011;15925;51.222;5.678;2023-05-07T09:43:37;3.83;;;2.55;;
28772;SDS011;15925;51.222;5.678;2023-05-07T09:46:09;6.03;;;3.13;;
28772;SDS011;15925;51.222;5.678;2023-05-07T09:48:40;7.13;;;3.10;;
28772;SDS011;15925;51.222;5.678;2023-05-07T09:53:43;7.15;;;3.08;;
28772;SDS011;15925;51.222;5.678;2023-05-07T09:56:13;5.63;;;2.33;;
28772;SDS011;15925;51.222;5.678;2023-05-07T09:58:40;4.72;;;2.75;;
28772;SDS011;15925;51.222;5.678;2023-05-07T10:01:07;8.90;;;2.72;;
28772;SDS011;15925;51.222;5.678;2023-05-07T10:03:33;4.65;;;2.42;;
28772;SDS011;15925;51.222;5.678;2023-05-07T10:06:04;3.80;;;2.53;;
28772;SDS011;15925;51.222;5.678;2023-05-07T10:08:30;8.07;;;2.30;;
28772;SDS011;15925;51.222;5.678;2023-05-07T10:10:59;4.97;;;1.70;;
28772;SDS011;15925;51.222;5.678;2023-05-07T10:13:27;19.95;;;3.35;;
28772;SDS011;15925;51.222;5.678;2023-05-07T10:15:56;9.85;;;2.35;;
28772;SDS011;15925;51.222;5.678;2023-05-07T10:18:26;2.88;;;2.03;;
28772;SDS011;15925;51.222;5.678;2023-05-07T10:21:18;4.40;;;1.63;;
28772;SDS011;15925;51.222;5.678;2023-05-07T10:26:17;5.50;;;2.75;;
28772;SDS011;15925;51.222;5.678;2023-05-07T10:28:46;8.85;;;3.55;;
28772;SDS011;15925;51.222;5.678;2023-05-07T10:34:13;7.72;;;2.83;;
28772;SDS011;15925;51.222;5.678;2023-05-07T10:36:46;4.78;;;2.28;;
28772;SDS011;15925;51.222;5.678;2023-05-07T10:39:14;5.60;;;2.15;;
28772;SDS011;15925;51.222;5.678;2023-05-07T10:41:40;12.18;;;2.78;;
28772;SDS011;15925;51.222;5.678;2023-05-07T10:44:06;6.00;;;3.22;;
28772;SDS011;15925;51.222;5.678;2023-05-07T10:46:34;10.88;;;3.05;;
28772;SDS011;15925;51.222;5.678;2023-05-07T10:49:12;9.18;;;3.33;;
28772;SDS011;15925;51.222;5.678;2023-05-07T10:52:13;7.32;;;2.90;;
28772;SDS011;15925;51.222;5.678;2023-05-07T10:54:45;13.20;;;3.80;;
28772;SDS011;15925;51.222;5.678;2023-05-07T10:57:32;5.47;;;3.03;;
28772;SDS011;15925;51.222;5.678;2023-05-07T11:05:30;4.25;;;2.33;;
28772;SDS011;15925;51.222;5.678;2023-05-07T11:08:20;3.03;;;1.83;;
28772;SDS011;15925;51.222;5.678;2023-05-07T11:11:03;4.05;;;2.15;;
28772;SDS011;15925;51.222;5.678;2023-05-07T11:13:48;4.38;;;1.95;;
28772;SDS011;15925;51.222;5.678;2023-05-07T11:16:46;5.10;;;1.55;;
28772;SDS011;15925;51.222;5.678;2023-05-07T11:20:06;3.63;;;1.48;;
28772;SDS011;15925;51.222;5.678;2023-05-07T11:25:10;2.03;;;1.30;;
28772;SDS011;15925;51.222;5.678;2023-05-07T11:27:42;6.00;;;1.63;;
28772;SDS011;15925;51.222;5.678;2023-05-07T11:30:08;4.30;;;1.20;;
28772;SDS011;15925;51.222;5.678;2023-05-07T11:32:34;10.98;;;2.67;;
28772;SDS011;15925;51.222;5.678;2023-05-07T11:35:00;5.65;;;2.10;;
28772;SDS011;15925;51.222;5.678;2023-05-07T11:37:27;3.95;;;1.75;;
28772;SDS011;15925;51.222;5.678;2023-05-07T11:40:05;2.83;;;1.60;;
28772;SDS011;15925;51.222;5.678;2023-05-07T11:42:33;5.75;;;1.88;;
28772;SDS011;15925;51.222;5.678;2023-05-07T11:45:04;3.67;;;1.95;;
28772;SDS011;15925;51.222;5.678;2023-05-07T11:47:33;3.20;;;1.73;;
28772;SDS011;15925;51.222;5.678;2023-05-07T11:50:06;3.92;;;1.77;;
28772;SDS011;15925;51.222;5.678;2023-05-07T11:52:33;3.17;;;1.70;;
28772;SDS011;15925;51.222;5.678;2023-05-07T11:55:00;3.00;;;1.63;;
28772;SDS011;15925;51.222;5.678;2023-05-07T11:57:28;2.38;;;1.40;;
28772;SDS011;15925;51.222;5.678;2023-05-07T11:59:55;4.15;;;1.75;;
28772;SDS011;15925;51.222;5.678;2023-05-07T12:02:24;2.22;;;1.13;;
28772;SDS011;15925;51.222;5.678;2023-05-07T12:07:17;2.53;;;1.30;;
28772;SDS011;15925;51.222;5.678;2023-05-07T12:12:10;4.22;;;1.33;;
28772;SDS011;15925;51.222;5.678;2023-05-07T12:14:42;1.77;;;1.40;;
28772;SDS011;15925;51.222;5.678;2023-05-07T12:17:09;2.72;;;1.23;;
28772;SDS011;15925;51.222;5.678;2023-05-07T12:19:39;6.57;;;1.65;;
28772;SDS011;15925;51.222;5.678;2023-05-07T12:22:07;2.92;;;1.40;;
28772;SDS011;15925;51.222;5.678;2023-05-07T12:27:09;4.28;;;1.60;;
28772;SDS011;15925;51.222;5.678;2023-05-07T12:29:34;13.70;;;2.00;;
28772;SDS011;15925;51.222;5.678;2023-05-07T12:32:00;1.88;;;1.67;;
28772;SDS011;15925;51.222;5.678;2023-05-07T12:34:26;3.38;;;1.58;;
28772;SDS011;15925;51.222;5.678;2023-05-07T12:36:53;3.25;;;1.60;;
28772;SDS011;15925;51.222;5.678;2023-05-07T12:39:19;3.30;;;1.20;;
28772;SDS011;15925;51.222;5.678;2023-05-07T12:41:57;5.18;;;1.92;;
28772;SDS011;15925;51.222;5.678;2023-05-07T12:44:25;8.05;;;1.20;;
28772;SDS011;15925;51.222;5.678;2023-05-07T12:46:54;2.40;;;1.27;;
28772;SDS011;15925;51.222;5.678;2023-05-07T12:49:20;4.13;;;1.70;;
28772;SDS011;15925;51.222;5.678;2023-05-07T12:51:49;2.33;;;1.48;;
28772;SDS011;15925;51.222;5.678;2023-05-07T12:54:37;2.78;;;1.50;;
28772;SDS011;15925;51.222;5.678;2023-05-07T12:59:37;2.67;;;1.20;;
28772;SDS011;15925;51.222;5.678;2023-05-07T13:02:07;1.73;;;1.23;;
28772;SDS011;15925;51.222;5.678;2023-05-07T13:04:34;14.05;;;1.25;;
28772;SDS011;15925;51.222;5.678;2023-05-07T13:07:01;0.45;;;0.45;;
28772;SDS011;15925;51.222;5.678;2023-05-07T13:11:54;0.68;;;0.30;;
28772;SDS011;15925;51.222;5.678;2023-05-07T13:14:20;0.40;;;0.40;;
28772;SDS011;15925;51.222;5.678;2023-05-07T13:16:46;2.13;;;0.50;;
28772;SDS011;15925;51.222;5.678;2023-05-07T13:19:12;5.40;;;0.50;;
28772;SDS011;15925;51.222;5.678;2023-05-07T13:21:38;3.92;;;0.55;;
28772;SDS011;15925;51.222;5.678;2023-05-07T13:24:04;0.23;;;0.23;;
28772;SDS011;15925;51.222;5.678;2023-05-07T13:26:30;6.13;;;0.60;;
28772;SDS011;15925;51.222;5.678;2023-05-07T13:28:56;5.28;;;0.80;;
28772;SDS011;15925;51.222;5.678;2023-05-07T13:31:22;0.53;;;0.37;;
28772;SDS011;15925;51.222;5.678;2023-05-07T13:33:49;0.70;;;0.43;;
28772;SDS011;15925;51.222;5.678;2023-05-07T13:36:15;0.88;;;0.60;;
28772;SDS011;15925;51.222;5.678;2023-05-07T13:38:41;0.50;;;0.50;;
28772;SDS011;15925;51.222;5.678;2023-05-07T13:41:07;4.47;;;0.82;;
28772;SDS011;15925;51.222;5.678;2023-05-07T13:43:32;2.60;;;0.30;;
28772;SDS011;15925;51.222;5.678;2023-05-07T13:46:01;1.25;;;0.40;;
28772;SDS011;15925;51.222;5.678;2023-05-07T13:48:28;0.80;;;0.45;;
28772;SDS011;15925;51.222;5.678;2023-05-07T13:50:54;0.45;;;0.45;;
28772;SDS011;15925;51.222;5.678;2023-05-07T13:53:20;2.70;;;0.87;;
28772;SDS011;15925;51.222;5.678;2023-05-07T13:55:46;0.60;;;0.30;;
28772;SDS011;15925;51.222;5.678;2023-05-07T13:58:13;0.65;;;0.60;;
28772;SDS011;15925;51.222;5.678;2023-05-07T14:00:39;3.38;;;0.60;;
28772;SDS011;15925;51.222;5.678;2023-05-07T14:03:05;0.37;;;0.33;;
28772;SDS011;15925;51.222;5.678;2023-05-07T14:05:31;0.82;;;0.57;;
28772;SDS011;15925;51.222;5.678;2023-05-07T14:07:57;1.48;;;0.40;;
28772;SDS011;15925;51.222;5.678;2023-05-07T14:10:23;1.05;;;0.68;;
28772;SDS011;15925;51.222;5.678;2023-05-07T14:12:49;1.33;;;0.70;;
28772;SDS011;15925;51.222;5.678;2023-05-07T14:15:17;3.83;;;1.20;;
28772;SDS011;15925;51.222;5.678;2023-05-07T14:17:43;1.17;;;0.95;;
28772;SDS011;15925;51.222;5.678;2023-05-07T14:20:10;1.48;;;0.85;;
28772;SDS011;15925;51.222;5.678;2023-05-07T14:22:37;1.17;;;1.08;;
28772;SDS011;15925;51.222;5.678;2023-05-07T14:25:03;1.77;;;1.55;;
28772;SDS011;15925;51.222;5.678;2023-05-07T14:27:29;3.35;;;2.53;;
28772;SDS011;15925;51.222;5.678;2023-05-07T14:29:55;3.17;;;2.30;;
28772;SDS011;15925;51.222;5.678;2023-05-07T14:32:21;6.05;;;2.35;;
28772;SDS011;15925;51.222;5.678;2023-05-07T14:34:47;5.25;;;2.03;;
28772;SDS011;15925;51.222;5.678;2023-05-07T14:37:13;4.60;;;2.58;;
28772;SDS011;15925;51.222;5.678;2023-05-07T14:39:39;4.88;;;2.95;;
28772;SDS011;15925;51.222;5.678;2023-05-07T14:42:05;8.43;;;2.75;;
28772;SDS011;15925;51.222;5.678;2023-05-07T14:44:33;5.57;;;3.22;;
28772;SDS011;15925;51.222;5.678;2023-05-07T14:47:00;7.55;;;2.80;;
28772;SDS011;15925;51.222;5.678;2023-05-07T14:49:25;5.33;;;2.90;;
28772;SDS011;15925;51.222;5.678;2023-05-07T14:51:51;4.67;;;2.80;;
28772;SDS011;15925;51.222;5.678;2023-05-07T14:54:17;5.13;;;2.77;;
28772;SDS011;15925;51.222;5.678;2023-05-07T14:56:43;6.57;;;3.07;;
28772;SDS011;15925;51.222;5.678;2023-05-07T14:59:08;3.87;;;2.07;;
28772;SDS011;15925;51.222;5.678;2023-05-07T15:01:35;6.75;;;2.53;;
28772;SDS011;15925;51.222;5.678;2023-05-07T15:04:04;7.85;;;3.08;;
28772;SDS011;15925;51.222;5.678;2023-05-07T15:06:30;7.43;;;2.67;;
28772;SDS011;15925;51.222;5.678;2023-05-07T15:08:57;3.25;;;2.35;;
28772;SDS011;15925;51.222;5.678;2023-05-07T15:11:23;9.10;;;2.72;;
28772;SDS011;15925;51.222;5.678;2023-05-07T15:13:49;6.35;;;2.28;;
28772;SDS011;15925;51.222;5.678;2023-05-07T15:16:15;5.95;;;2.65;;
28772;SDS011;15925;51.222;5.678;2023-05-07T15:18:41;2.53;;;1.90;;
28772;SDS011;15925;51.222;5.678;2023-05-07T15:23:33;11.55;;;4.38;;
28772;SDS011;15925;51.222;5.678;2023-05-07T15:25:59;8.32;;;3.45;;
28772;SDS011;15925;51.222;5.678;2023-05-07T15:28:26;8.80;;;4.28;;
28772;SDS011;15925;51.222;5.678;2023-05-07T15:30:55;6.68;;;3.22;;
28772;SDS011;15925;51.222;5.678;2023-05-07T15:33:21;6.13;;;3.83;;
28772;SDS011;15925;51.222;5.678;2023-05-07T15:35:47;13.32;;;4.65;;
28772;SDS011;15925;51.222;5.678;2023-05-07T15:38:13;6.78;;;3.80;;
28772;SDS011;15925;51.222;5.678;2023-05-07T15:40:39;6.83;;;4.40;;
28772;SDS011;15925;51.222;5.678;2023-05-07T15:43:08;8.40;;;4.32;;
28772;SDS011;15925;51.222;5.678;2023-05-07T15:45:38;10.57;;;4.45;;
28772;SDS011;15925;51.222;5.678;2023-05-07T15:48:05;6.05;;;4.43;;
28772;SDS011;15925;51.222;5.678;2023-05-07T15:50:31;9.18;;;4.63;;
28772;SDS011;15925;51.222;5.678;2023-05-07T15:52:57;12.02;;;4.57;;
28772;SDS011;15925;51.222;5.678;2023-05-07T15:55:23;7.05;;;4.65;;